createdAt,value
2018-04-02T00:01:11.150Z,88.20
2018-04-02T00:03:39.019Z,87.70
2018-04-02T00:06:05.399Z,87.60
2018-04-02T00:08:31.790Z,87.60
2018-04-02T00:10:58.956Z,87.80
2018-04-02T00:13:26.089Z,87.80
2018-04-02T00:15:52.521Z,87.70
2018-04-02T00:18:19.687Z,87.30
2018-04-02T00:20:46.836Z,87.00
2018-04-02T00:23:13.968Z,87.00
2018-04-02T00:25:40.358Z,86.90
2018-04-02T00:28:06.735Z,87.50
2018-04-02T00:30:34.607Z,87.50
2018-04-02T00:33:01.744Z,86.90
2018-04-02T00:35:28.880Z,86.70
2018-04-02T00:37:55.295Z,86.70
2018-04-02T00:40:21.699Z,86.40
2018-04-02T00:42:48.087Z,86.40
2018-04-02T00:45:14.477Z,86.10
2018-04-02T00:47:40.872Z,86.20
2018-04-02T00:50:08.020Z,85.10
2018-04-02T00:52:35.169Z,85.40
2018-04-02T00:55:02.324Z,85.60
2018-04-02T00:57:29.433Z,86.10
2018-04-02T00:59:55.841Z,86.10
2018-04-02T01:02:22.229Z,85.90
2018-04-02T01:04:49.348Z,85.40
2018-04-02T01:07:15.764Z,85.40
2018-04-02T01:09:42.182Z,85.10
2018-04-02T01:12:08.586Z,85.60
2018-04-02T01:14:35.721Z,85.50
2018-04-02T01:17:02.855Z,86.00
2018-04-02T01:19:29.229Z,86.00
2018-04-02T01:21:55.632Z,85.70
2018-04-02T01:24:22.753Z,86.00
2018-04-02T01:26:49.277Z,86.00
2018-04-02T01:29:15.705Z,85.60
2018-04-02T01:31:42.122Z,85.30
2018-04-02T01:34:08.496Z,84.90
2018-04-02T01:36:35.660Z,84.80
2018-04-02T01:39:02.104Z,84.80
2018-04-02T01:41:29.242Z,85.90
2018-04-02T01:43:56.375Z,85.80
2018-04-02T01:46:22.800Z,85.80
2018-04-02T01:48:49.197Z,85.80
2018-04-02T01:51:15.604Z,85.90
2018-04-02T01:53:42.742Z,86.60
2018-04-02T01:56:09.124Z,86.60
2018-04-02T01:58:35.504Z,86.80
2018-04-02T02:01:02.661Z,86.00
2018-04-02T02:03:29.841Z,85.60
2018-04-02T02:05:56.270Z,85.60
2018-04-02T02:08:22.713Z,85.90
2018-04-02T02:10:49.121Z,85.60
2018-04-02T02:13:16.287Z,86.10
2018-04-02T02:15:42.692Z,86.10
2018-04-02T02:18:09.828Z,86.20
2018-04-02T02:20:36.255Z,86.70
2018-04-02T02:23:02.703Z,86.70
2018-04-02T02:25:30.573Z,86.70
2018-04-02T02:27:57.691Z,86.80
2018-04-02T02:30:24.202Z,86.80
2018-04-02T02:32:50.690Z,86.70
2018-04-02T02:35:17.815Z,87.00
2018-04-02T02:37:44.789Z,86.90
2018-04-02T02:40:11.927Z,87.30
2018-04-02T02:42:38.326Z,86.70
2018-04-02T02:45:04.800Z,87.00
2018-04-02T02:47:32.014Z,86.60
2018-04-02T02:49:58.472Z,86.40
2018-04-02T02:52:24.866Z,86.60
2018-04-02T02:54:51.257Z,87.00
2018-04-02T02:57:18.368Z,86.60
2018-04-02T02:59:44.857Z,86.60
2018-04-02T03:02:11.247Z,86.30
2018-04-02T03:04:38.407Z,86.60
2018-04-02T03:07:05.588Z,87.00
2018-04-02T03:09:31.968Z,87.00
2018-04-02T03:11:58.352Z,86.50
2018-04-02T03:14:24.756Z,86.50
2018-04-02T03:16:51.879Z,86.30
2018-04-02T03:19:18.251Z,86.30
2018-04-02T03:21:45.372Z,85.80
2018-04-02T03:24:11.749Z,85.70
2018-04-02T03:26:38.149Z,85.60
2018-04-02T03:29:05.305Z,85.40
2018-04-02T03:31:32.456Z,86.40
2018-04-02T03:33:59.608Z,86.80
2018-04-02T03:36:26.796Z,87.70
2018-04-02T03:38:53.187Z,87.00
2018-04-02T03:41:20.304Z,87.50
2018-04-02T03:43:46.698Z,87.40
2018-04-02T03:46:13.117Z,87.00
2018-04-02T03:48:39.503Z,87.20
2018-04-02T03:51:05.902Z,87.00
2018-04-02T03:53:32.325Z,87.20
2018-04-02T03:55:58.728Z,87.20
2018-04-02T03:58:25.865Z,86.90
2018-04-02T04:00:52.308Z,86.90
2018-04-02T04:03:19.438Z,86.40
2018-04-02T04:05:45.839Z,86.20
2018-04-02T04:08:12.235Z,86.20
2018-04-02T04:10:39.342Z,85.70
2018-04-02T04:13:05.731Z,85.60
2018-04-02T04:15:32.131Z,85.70
2018-04-02T04:17:58.507Z,85.70
2018-04-02T04:20:24.899Z,85.60
2018-04-02T04:22:51.326Z,85.10
2018-04-02T04:25:18.485Z,85.20
2018-04-02T04:27:45.619Z,85.20
2018-04-02T04:30:12.011Z,85.20
2018-04-02T04:32:38.388Z,84.90
2018-04-02T04:35:05.544Z,85.20
2018-04-02T04:37:32.674Z,85.30
2018-04-02T04:39:59.108Z,85.20
2018-04-02T04:42:25.559Z,85.40
2018-04-02T04:44:52.676Z,85.20
2018-04-02T04:47:19.076Z,85.10
2018-04-02T04:49:45.468Z,85.60
2018-04-02T04:52:13.331Z,85.60
2018-04-02T04:54:40.463Z,85.40
2018-04-02T04:57:06.860Z,85.40
2018-04-02T04:59:33.257Z,85.20
2018-04-02T05:02:00.365Z,86.30
2018-04-02T05:04:26.769Z,85.90
2018-04-02T05:06:53.138Z,85.40
2018-04-02T05:09:19.528Z,84.90
2018-04-02T05:11:45.917Z,85.80
2018-04-02T05:14:12.297Z,86.10
2018-04-02T05:16:38.672Z,85.90
2018-04-02T05:19:05.076Z,86.00
2018-04-02T05:21:31.487Z,85.50
2018-04-02T05:23:57.876Z,85.90
2018-04-02T05:26:24.287Z,86.30
2018-04-02T05:28:50.712Z,86.20
2018-04-02T05:31:17.118Z,85.60
2018-04-02T05:33:43.494Z,85.30
2018-04-02T05:36:09.904Z,85.10
2018-04-02T05:38:36.295Z,85.20
2018-04-02T05:41:03.428Z,84.70
2018-04-02T05:43:31.353Z,84.50
2018-04-02T05:45:57.792Z,84.50
2018-04-02T05:48:24.172Z,84.60
2018-04-02T05:50:51.291Z,84.30
2018-04-02T05:53:19.190Z,84.30
2018-04-02T05:55:46.368Z,84.40
2018-04-02T05:58:12.791Z,84.40
2018-04-02T06:00:39.189Z,84.30
2018-04-02T06:03:05.570Z,85.00
2018-04-02T06:05:31.957Z,85.10
2018-04-02T06:07:59.109Z,86.00
2018-04-02T06:10:25.534Z,85.60
2018-04-02T06:12:52.662Z,87.30
2018-04-02T06:15:19.058Z,87.30
2018-04-02T06:17:45.443Z,88.00
2018-04-02T06:20:11.884Z,88.40
2018-04-02T06:22:38.996Z,89.70
2018-04-02T06:25:05.377Z,89.70
2018-04-02T06:27:32.503Z,90.60
2018-04-02T06:29:58.904Z,90.60
2018-04-02T06:32:25.336Z,91.00
2018-04-02T06:34:51.736Z,91.30
2018-04-02T06:37:18.180Z,91.40
2018-04-02T06:39:44.601Z,91.50
2018-04-02T06:42:10.988Z,91.60
2018-04-02T06:44:37.404Z,91.40
2018-04-02T06:47:03.807Z,91.40
2018-04-02T06:49:30.197Z,91.20
2018-04-02T06:51:56.591Z,91.10
2018-04-02T06:54:22.959Z,90.80
2018-04-02T06:56:49.354Z,90.80
2018-04-02T06:59:15.745Z,90.90
2018-04-02T07:01:42.855Z,90.70
2018-04-02T07:04:09.226Z,90.70
2018-04-02T07:06:36.346Z,89.70
2018-04-02T07:09:05.228Z,89.40
2018-04-02T07:11:31.723Z,89.40
2018-04-02T07:13:58.124Z,90.00
2018-04-02T07:16:24.508Z,90.00
2018-04-02T07:18:50.899Z,90.40
2018-04-02T07:21:18.030Z,89.00
2018-04-02T07:23:44.423Z,88.90
2018-04-02T07:26:10.822Z,88.50
2018-04-02T07:28:37.209Z,87.10
2018-04-02T07:31:03.612Z,85.20
2018-04-02T07:33:30.033Z,84.40
2018-04-02T07:35:56.439Z,83.50
2018-04-02T07:38:23.570Z,85.10
2018-04-02T07:40:49.970Z,85.10
2018-04-02T07:43:16.965Z,84.10
2018-04-02T07:45:44.109Z,82.20
2018-04-02T07:48:10.522Z,82.00
2018-04-02T07:50:37.000Z,80.30
2018-04-02T07:53:03.392Z,80.60
2018-04-02T07:55:29.804Z,78.50
2018-04-02T07:57:56.197Z,76.70
2018-04-02T08:00:22.597Z,78.90
2018-04-02T08:02:49.784Z,81.10
2018-04-02T08:05:16.142Z,81.60
2018-04-02T08:07:42.523Z,83.20
2018-04-02T08:10:09.629Z,84.70
2018-04-02T08:12:36.092Z,84.70
2018-04-02T08:15:03.320Z,84.60
2018-04-02T08:17:29.739Z,84.60
2018-04-02T08:19:56.157Z,84.50
2018-04-02T08:22:22.572Z,84.40
2018-04-02T08:24:48.951Z,85.10
2018-04-02T08:27:15.401Z,83.90
2018-04-02T08:29:41.876Z,84.40
2018-04-02T08:32:08.359Z,81.20
2018-04-02T08:34:34.833Z,81.20
2018-04-02T08:37:01.316Z,80.70
2018-04-02T08:39:27.776Z,81.60
2018-04-02T08:41:54.916Z,81.70
2018-04-02T08:44:22.848Z,82.90
2018-04-02T08:46:49.198Z,82.90
2018-04-02T08:49:15.584Z,83.70
2018-04-02T08:51:41.992Z,83.60
2018-04-02T08:54:09.137Z,84.70
2018-04-02T08:56:36.358Z,84.50
2018-04-02T08:59:02.808Z,83.70
2018-04-02T09:01:30.729Z,80.10
2018-04-02T09:03:57.108Z,80.00
2018-04-02T09:06:23.489Z,80.90
2018-04-02T09:08:49.848Z,77.40
2018-04-02T09:11:16.257Z,74.40
2018-04-02T09:13:42.665Z,72.50
2018-04-02T09:16:09.864Z,75.60
2018-04-02T09:18:36.298Z,75.60
2018-04-02T09:21:03.452Z,77.00
2018-04-02T09:23:29.871Z,76.90
2018-04-02T09:25:56.264Z,77.00
2018-04-02T09:28:23.407Z,76.80
2018-04-02T09:30:50.554Z,74.90
2018-04-02T09:33:17.719Z,74.70
2018-04-02T09:35:44.840Z,73.00
2018-04-02T09:38:11.237Z,72.90
2018-04-02T09:40:37.644Z,73.10
2018-04-02T09:43:04.004Z,74.70
2018-04-02T09:45:30.401Z,72.60
2018-04-02T09:47:56.812Z,67.50
2018-04-02T09:50:23.943Z,67.80
2018-04-02T09:52:50.334Z,67.70
2018-04-02T09:55:16.759Z,61.20
2018-04-02T09:57:43.140Z,60.20
2018-04-02T10:00:09.545Z,61.70
2018-04-02T10:02:35.941Z,61.60
2018-04-02T10:05:03.223Z,66.00
2018-04-02T10:07:29.534Z,66.00
2018-04-02T10:09:55.957Z,66.80
2018-04-02T10:12:22.327Z,67.40
2018-04-02T10:14:48.729Z,68.20
2018-04-02T10:17:15.132Z,70.20
2018-04-02T10:19:41.530Z,69.50
2018-04-02T10:22:07.926Z,71.50
2018-04-02T10:24:34.389Z,67.80
2018-04-02T10:27:00.793Z,64.60
2018-04-02T10:29:27.160Z,67.00
2018-04-02T10:31:53.572Z,66.80
2018-04-02T10:34:20.941Z,64.50
2018-04-02T10:36:47.412Z,63.00
2018-04-02T10:39:13.810Z,63.50
2018-04-02T10:41:40.224Z,64.30
2018-04-02T10:44:06.632Z,62.80
2018-04-02T10:46:33.771Z,62.30
2018-04-02T10:49:00.895Z,61.40
2018-04-02T10:51:27.344Z,61.40
2018-04-02T10:53:53.809Z,60.20
2018-04-02T10:56:20.227Z,59.90
2018-04-02T10:58:47.365Z,58.30
2018-04-02T11:01:13.757Z,58.20
2018-04-02T11:03:40.130Z,55.80
2018-04-02T11:06:07.255Z,58.20
2018-04-02T11:08:33.670Z,57.60
2018-04-02T11:11:00.103Z,55.80
2018-04-02T11:13:26.507Z,55.40
2018-04-02T11:15:52.924Z,57.00
2018-04-02T11:18:20.079Z,55.90
2018-04-02T11:20:47.229Z,55.50
2018-04-02T11:23:14.332Z,54.80
2018-04-02T11:25:40.742Z,54.70
2018-04-02T11:28:07.126Z,54.90
2018-04-02T11:30:34.410Z,51.70
2018-04-02T11:33:00.804Z,51.70
2018-04-02T11:35:27.188Z,52.40
2018-04-02T11:37:53.639Z,52.70
2018-04-02T11:40:20.056Z,55.30
2018-04-02T11:42:46.424Z,54.60
2018-04-02T11:45:12.816Z,51.00
2018-04-02T11:47:39.204Z,52.40
2018-04-02T11:50:06.342Z,47.80
2018-04-02T11:52:33.471Z,51.70
2018-04-02T11:54:59.881Z,51.30
2018-04-02T11:57:26.312Z,49.80
2018-04-02T11:59:52.839Z,51.20
2018-04-02T12:02:19.278Z,50.40
2018-04-02T12:04:45.666Z,49.10
2018-04-02T12:07:12.051Z,46.60
2018-04-02T12:09:38.432Z,48.20
2018-04-02T12:12:05.584Z,50.60
2018-04-02T12:14:32.706Z,45.90
2018-04-02T12:16:59.120Z,45.90
2018-04-02T12:19:25.504Z,45.10
2018-04-02T12:21:52.628Z,43.70
2018-04-02T12:24:19.007Z,43.60
2018-04-02T12:26:45.392Z,45.40
2018-04-02T12:29:13.307Z,42.60
2018-04-02T12:31:40.827Z,42.10
2018-04-02T12:34:08.040Z,41.80
2018-04-02T12:36:37.546Z,45.00
2018-04-02T12:39:05.701Z,43.60
2018-04-02T12:41:36.528Z,44.40
2018-04-02T12:44:06.127Z,44.00
2018-04-02T12:46:32.599Z,43.90
2018-04-02T12:49:00.716Z,42.80
2018-04-02T12:51:29.042Z,42.80
2018-04-02T12:53:56.940Z,41.30
2018-04-02T12:56:25.364Z,40.00
2018-04-02T12:58:51.969Z,38.80
2018-04-02T13:01:19.536Z,40.80
2018-04-02T13:03:46.117Z,40.40
2018-04-02T13:06:12.510Z,39.00
2018-04-02T13:08:39.682Z,40.30
2018-04-02T13:11:08.309Z,40.40
2018-04-02T13:13:36.045Z,40.30
2018-04-02T13:16:03.745Z,37.50
2018-04-02T13:18:30.264Z,40.80
2018-04-02T13:20:57.465Z,38.10
2018-04-02T13:23:24.400Z,38.10
2018-04-02T13:25:50.862Z,39.70
2018-04-02T13:28:17.408Z,40.90
2018-04-02T13:30:44.537Z,38.70
2018-04-02T13:33:11.052Z,38.50
2018-04-02T13:35:38.567Z,39.70
2018-04-02T13:38:05.171Z,39.60
2018-04-02T13:40:31.628Z,38.60
2018-04-02T13:42:58.858Z,39.80
2018-04-02T13:45:25.375Z,39.70
2018-04-02T13:47:52.984Z,39.80
2018-04-02T13:50:20.065Z,39.70
2018-04-02T13:52:47.079Z,41.00
2018-04-02T13:55:14.620Z,40.80
2018-04-02T13:57:43.251Z,41.10
2018-04-02T14:00:12.641Z,40.90
2018-04-02T14:02:39.084Z,41.10
2018-04-02T14:05:06.315Z,43.30
2018-04-02T14:07:32.934Z,43.20
2018-04-02T14:10:13.478Z,43.50
2018-04-02T14:12:39.991Z,41.50
2018-04-02T14:15:07.545Z,41.40
2018-04-02T14:17:34.033Z,40.90
2018-04-02T14:20:00.482Z,40.30
2018-04-02T14:22:27.285Z,42.00
2018-04-02T14:24:53.797Z,43.90
2018-04-02T14:27:21.192Z,42.20
2018-04-02T14:29:47.696Z,42.20
2018-04-02T14:32:15.891Z,42.10
2018-04-02T14:34:43.402Z,42.10
2018-04-02T14:37:10.824Z,42.00
2018-04-02T14:39:38.083Z,40.30
2018-04-02T14:42:07.932Z,42.00
2018-04-02T14:44:35.286Z,40.50
2018-04-02T14:47:02.571Z,40.50
2018-04-02T14:49:28.974Z,40.20
2018-04-02T14:51:55.418Z,40.20
2018-04-02T14:54:23.618Z,39.10
2018-04-02T14:56:51.367Z,39.10
2018-04-02T14:59:20.471Z,38.40
2018-04-02T15:01:47.633Z,38.40
2018-04-02T15:04:14.070Z,39.40
2018-04-02T15:06:42.353Z,39.10
2018-04-02T15:09:10.746Z,39.10
2018-04-02T15:11:38.045Z,39.20
2018-04-02T15:14:05.248Z,40.50
2018-04-02T15:16:32.576Z,39.30
2018-04-02T15:18:59.831Z,38.80
2018-04-02T15:21:27.172Z,39.00
2018-04-02T15:23:53.817Z,40.40
2018-04-02T15:26:20.325Z,40.60
2018-04-02T15:28:48.521Z,40.50
2018-04-02T15:31:15.081Z,40.50
2018-04-02T15:33:42.331Z,40.50
2018-04-02T15:36:10.303Z,41.10
2018-04-02T15:38:36.817Z,41.10
2018-04-02T15:41:03.295Z,39.90
2018-04-02T15:43:30.274Z,39.00
2018-04-02T15:45:57.438Z,40.20
2018-04-02T15:48:25.540Z,40.40
2018-04-02T15:50:53.438Z,40.90
2018-04-02T15:53:20.839Z,40.80
2018-04-02T15:55:48.002Z,41.80
2018-04-02T15:58:15.649Z,42.40
2018-04-02T16:00:42.932Z,42.80
2018-04-02T16:03:10.273Z,42.80
2018-04-02T16:05:37.758Z,41.80
2018-04-02T16:08:05.392Z,43.20
2018-04-02T16:10:35.001Z,41.10
2018-04-02T16:13:03.172Z,41.50
2018-04-02T16:15:30.416Z,43.40
2018-04-02T16:17:58.732Z,42.00
2018-04-02T16:20:28.107Z,43.20
2018-04-02T16:22:54.643Z,42.80
2018-04-02T16:25:21.068Z,41.60
2018-04-02T16:27:48.331Z,42.50
2018-04-02T16:30:15.104Z,43.00
2018-04-02T16:32:42.345Z,42.20
2018-04-02T16:35:08.911Z,42.30
2018-04-02T16:37:36.886Z,42.60
2018-04-02T16:40:03.393Z,42.60
2018-04-02T16:42:29.869Z,42.80
2018-04-02T16:44:57.761Z,43.40
2018-04-02T16:47:25.175Z,43.50
2018-04-02T16:49:52.376Z,44.40
2018-04-02T16:52:18.807Z,44.40
2018-04-02T16:54:45.353Z,44.20
2018-04-02T16:57:11.804Z,46.60
2018-04-02T16:59:39.216Z,45.70
2018-04-02T17:02:05.692Z,45.40
2018-04-02T17:04:33.799Z,45.90
2018-04-02T17:07:01.103Z,46.30
2018-04-02T17:09:28.791Z,46.30
2018-04-02T17:11:56.345Z,46.10
2018-04-02T17:14:24.818Z,46.20
2018-04-02T17:16:52.058Z,47.00
2018-04-02T17:19:20.799Z,48.10
2018-04-02T17:21:50.449Z,46.50
2018-04-02T17:24:18.638Z,46.50
2018-04-02T17:26:46.780Z,46.30
2018-04-02T17:29:13.420Z,46.50
2018-04-02T17:31:39.842Z,46.50
2018-04-02T17:34:06.985Z,45.20
2018-04-02T17:36:34.154Z,45.10
2018-04-02T17:39:01.575Z,45.60
2018-04-02T17:41:28.767Z,45.40
2018-04-02T17:43:55.152Z,45.40
2018-04-02T17:46:23.028Z,46.00
2018-04-02T17:48:51.750Z,46.00
2018-04-02T17:51:18.147Z,46.40
2018-04-02T17:53:44.876Z,46.70
2018-04-02T17:56:12.321Z,47.10
2018-04-02T17:58:38.731Z,46.90
2018-04-02T18:01:05.134Z,46.80
2018-04-02T18:03:32.291Z,46.40
2018-04-02T18:05:59.432Z,48.30
2018-04-02T18:08:26.564Z,51.70
2018-04-02T18:10:54.329Z,50.70
2018-04-02T18:13:20.721Z,50.60
2018-04-02T18:15:47.123Z,52.20
2018-04-02T18:18:13.528Z,55.20
2018-04-02T18:20:40.659Z,56.10
2018-04-02T18:23:07.066Z,56.30
2018-04-02T18:25:33.475Z,57.00
2018-04-02T18:27:59.882Z,57.30
2018-04-02T18:30:27.086Z,57.70
2018-04-02T18:32:53.456Z,57.60
2018-04-02T18:35:19.851Z,57.70
2018-04-02T18:37:46.252Z,58.00
2018-04-02T18:40:12.675Z,57.90
2018-04-02T18:42:39.119Z,58.10
2018-04-02T18:45:05.569Z,58.20
2018-04-02T18:47:31.938Z,59.60
2018-04-02T18:49:58.376Z,59.90
2018-04-02T18:52:25.710Z,59.20
2018-04-02T18:54:52.081Z,60.20
2018-04-02T18:57:19.245Z,60.60
2018-04-02T18:59:45.648Z,60.50
2018-04-02T19:02:12.042Z,61.90
2018-04-02T19:04:38.461Z,62.50
2018-04-02T19:07:04.899Z,61.00
2018-04-02T19:09:31.289Z,60.40
2018-04-02T19:11:58.531Z,61.90
2018-04-02T19:14:25.713Z,63.60
2018-04-02T19:16:52.175Z,63.60
2018-04-02T19:19:18.659Z,64.50
2018-04-02T19:21:45.968Z,66.50
2018-04-02T19:24:12.370Z,66.50
2018-04-02T19:26:39.101Z,69.50
2018-04-02T19:29:06.221Z,70.50
2018-04-02T19:31:36.560Z,70.80
2018-04-02T19:34:02.978Z,70.80
2018-04-02T19:36:29.369Z,70.60
2018-04-02T19:38:55.795Z,71.70
2018-04-02T19:41:22.273Z,71.30
2018-04-02T19:43:48.685Z,70.50
2018-04-02T19:46:15.083Z,72.00
2018-04-02T19:48:42.340Z,71.80
2018-04-02T19:51:08.765Z,72.40
2018-04-02T19:53:35.181Z,72.40
2018-04-02T19:56:02.361Z,71.80
2018-04-02T19:58:28.767Z,71.60
2018-04-02T20:00:55.187Z,71.60
2018-04-02T20:03:21.619Z,72.70
2018-04-02T20:05:48.795Z,73.50
2018-04-02T20:08:15.183Z,73.90
2018-04-02T20:10:43.064Z,75.90
2018-04-02T20:13:10.365Z,75.90
2018-04-02T20:15:36.732Z,76.80
2018-04-02T20:18:03.181Z,77.40
2018-04-02T20:20:31.225Z,79.00
2018-04-02T20:22:57.655Z,79.00
2018-04-02T20:25:25.547Z,78.90
2018-04-02T20:28:05.506Z,78.90
2018-04-02T20:30:32.664Z,79.70
2018-04-02T20:32:59.780Z,79.30
2018-04-02T20:35:26.199Z,79.20
2018-04-02T20:37:52.647Z,79.20
2018-04-02T20:40:19.120Z,79.70
2018-04-02T20:42:45.498Z,79.90
2018-04-02T20:45:11.894Z,79.70
2018-04-02T20:47:38.364Z,81.60
2018-04-02T20:50:04.781Z,82.00
2018-04-02T20:52:31.194Z,81.60
2018-04-02T20:54:57.586Z,81.90
2018-04-02T20:57:23.979Z,80.60
2018-04-02T20:59:50.364Z,81.70
2018-04-02T21:02:17.583Z,80.30
2018-04-02T21:04:43.984Z,80.30
2018-04-02T21:07:10.365Z,80.60
2018-04-02T21:09:36.777Z,81.00
2018-04-02T21:12:04.856Z,81.70
2018-04-02T21:14:31.247Z,81.40
2018-04-02T21:16:57.633Z,80.60
2018-04-02T21:19:24.020Z,81.80
2018-04-02T21:21:50.402Z,81.50
2018-04-02T21:24:17.527Z,81.80
2018-04-02T21:26:43.926Z,81.70
2018-04-02T21:29:10.317Z,82.10
2018-04-02T21:31:37.503Z,83.20
2018-04-02T21:34:03.902Z,83.20
2018-04-02T21:36:31.021Z,83.70
2018-04-02T21:38:57.405Z,83.70
2018-04-02T21:41:23.869Z,83.60
2018-04-02T21:43:50.248Z,83.00
2018-04-02T21:46:17.387Z,83.40
2018-04-02T21:48:44.689Z,83.10
2018-04-02T21:51:11.084Z,83.10
2018-04-02T21:53:38.230Z,83.00
2018-04-02T21:56:05.517Z,82.90
2018-04-02T21:58:31.888Z,82.90
2018-04-02T22:00:58.279Z,83.30
2018-04-02T22:03:24.683Z,83.00
2018-04-02T22:05:51.836Z,82.90
2018-04-02T22:08:18.976Z,82.90
2018-04-02T22:10:46.145Z,83.40
2018-04-02T22:13:13.317Z,83.60
2018-04-02T22:15:39.701Z,83.50
2018-04-02T22:18:06.098Z,83.70
2018-04-02T22:20:32.491Z,83.40
2018-04-02T22:22:59.653Z,83.70
2018-04-02T22:25:26.044Z,83.60
2018-04-02T22:27:52.434Z,83.30
2018-04-02T22:30:19.568Z,83.50
2018-04-02T22:32:47.208Z,84.20
2018-04-02T22:35:14.327Z,84.80
2018-04-02T22:37:40.711Z,84.70
2018-04-02T22:40:07.143Z,84.60
2018-04-02T22:42:34.372Z,84.40
2018-04-02T22:45:01.668Z,84.30
2018-04-02T22:47:28.081Z,84.20
2018-04-02T22:49:54.470Z,85.10
2018-04-02T22:52:21.585Z,84.20
2018-04-02T22:54:48.064Z,84.20
2018-04-02T22:57:15.175Z,83.60
2018-04-02T22:59:41.548Z,83.60
2018-04-02T23:02:07.931Z,83.60
2018-04-02T23:04:34.324Z,84.50
2018-04-02T23:07:01.477Z,86.20
2018-04-02T23:09:28.614Z,85.60
2018-04-02T23:11:55.725Z,85.30
2018-04-02T23:14:22.130Z,84.70
2018-04-02T23:16:49.373Z,85.40
2018-04-02T23:19:15.797Z,85.40
2018-04-02T23:21:42.182Z,86.10
2018-04-02T23:24:08.593Z,85.40
2018-04-02T23:26:34.988Z,85.30
2018-04-02T23:29:02.138Z,85.30
2018-04-02T23:31:28.525Z,85.20
2018-04-02T23:33:54.915Z,86.00
2018-04-02T23:36:21.306Z,86.00
2018-04-02T23:38:47.746Z,85.40
2018-04-02T23:41:14.924Z,84.60
2018-04-02T23:43:41.320Z,84.00
2018-04-02T23:46:08.013Z,84.40
2018-04-02T23:48:34.396Z,85.40
2018-04-02T23:51:00.771Z,85.40
2018-04-02T23:53:27.164Z,85.70
2018-04-02T23:55:53.608Z,86.00
2018-04-02T23:58:20.742Z,87.00
